createdAt,value
2023-01-02T00:01:08.032Z,99767.41
2023-01-02T00:03:36.631Z,99770.06
2023-01-02T00:06:06.681Z,99775.41
2023-01-02T00:08:34.857Z,99773.88
2023-01-02T00:11:03.210Z,99774.88
2023-01-02T00:13:31.240Z,99782.63
2023-01-02T00:15:59.288Z,99779.69
2023-01-02T00:18:27.595Z,99785.72
2023-01-02T00:20:55.815Z,99786.44
2023-01-02T00:23:25.574Z,99787.00
2023-01-02T00:25:53.877Z,99779.88
2023-01-02T00:28:22.045Z,99773.53
2023-01-02T00:30:50.060Z,99782.13
2023-01-02T00:33:18.469Z,99787.59
2023-01-02T00:35:46.671Z,99790.81
2023-01-02T00:38:14.945Z,99790.69
2023-01-02T00:40:44.624Z,99783.81
2023-01-02T00:43:12.859Z,99791.41
2023-01-02T00:45:40.969Z,99787.78
2023-01-02T00:48:09.146Z,99797.19
2023-01-02T00:50:37.686Z,99796.06
2023-01-02T00:53:05.780Z,99801.41
2023-01-02T00:55:34.607Z,99803.38
2023-01-02T00:58:04.156Z,99804.81
2023-01-02T01:00:32.428Z,99809.88
2023-01-02T01:03:01.218Z,99809.72
2023-01-02T01:05:29.888Z,99809.44
2023-01-02T01:07:58.743Z,99812.97
2023-01-02T01:10:27.744Z,99813.81
2023-01-02T01:12:55.935Z,99811.16
2023-01-02T01:15:25.507Z,99820.59
2023-01-02T01:17:53.619Z,99824.81
2023-01-02T01:20:22.139Z,99821.41
2023-01-02T01:22:50.397Z,99820.59
2023-01-02T01:25:18.912Z,99825.91
2023-01-02T01:27:47.064Z,99827.34
2023-01-02T01:30:15.349Z,99830.97
2023-01-02T01:32:44.767Z,99830.72
2023-01-02T01:35:13.662Z,99824.69
2023-01-02T01:37:41.832Z,99836.75
2023-01-02T01:40:10.467Z,99843.66
2023-01-02T01:42:38.585Z,99846.19
2023-01-02T01:45:13.605Z,99850.69
2023-01-02T01:47:43.799Z,99851.50
2023-01-02T01:50:16.615Z,99855.19
2023-01-02T01:52:48.041Z,99858.56
2023-01-02T01:55:18.767Z,99873.47
2023-01-02T01:57:49.865Z,99869.78
2023-01-02T02:00:18.640Z,99873.47
2023-01-02T02:02:49.010Z,99875.69
2023-01-02T02:05:20.411Z,99881.59
2023-01-02T02:07:53.183Z,99884.97
2023-01-02T02:10:21.807Z,99888.38
2023-01-02T02:12:49.829Z,99889.22
2023-01-02T02:15:21.231Z,99890.03
2023-01-02T02:17:56.377Z,99896.38
2023-01-02T02:20:32.248Z,99902.41
2023-01-02T02:23:11.919Z,99904.13
2023-01-02T02:25:58.140Z,99906.78
2023-01-02T02:28:44.201Z,99916.59
2023-01-02T02:31:15.970Z,99921.84
2023-01-02T02:33:47.815Z,99926.19
2023-01-02T02:36:19.506Z,99930.53
2023-01-02T02:38:54.191Z,99933.09
2023-01-02T02:41:30.251Z,99937.31
2023-01-02T02:44:03.415Z,99939.03
2023-01-02T02:46:38.844Z,99938.75
2023-01-02T02:49:14.037Z,99932.94
2023-01-02T02:51:47.057Z,99939.84
2023-01-02T02:54:17.976Z,99934.38
2023-01-02T02:56:47.855Z,99934.66
2023-01-02T02:59:16.118Z,99931.25
2023-01-02T03:01:45.925Z,99946.56
2023-01-02T03:04:17.740Z,99953.59
2023-01-02T03:06:50.503Z,99950.34
2023-01-02T03:09:20.239Z,99959.22
2023-01-02T03:11:50.334Z,99957.25
2023-01-02T03:14:22.929Z,99966.22
2023-01-02T03:16:55.951Z,99971.84
2023-01-02T03:19:29.573Z,99968.47
2023-01-02T03:22:00.930Z,99975.03
2023-01-02T03:24:29.838Z,99973.88
2023-01-02T03:27:00.889Z,99975.66
2023-01-02T03:29:31.601Z,99977.50
2023-01-02T03:32:02.868Z,99975.78
2023-01-02T03:34:32.647Z,99983.81
2023-01-02T03:37:04.096Z,99985.66
2023-01-02T03:39:34.609Z,99986.44
2023-01-02T03:42:05.026Z,99978.22
2023-01-02T03:44:38.657Z,99985.16
2023-01-02T03:47:12.270Z,99982.28
2023-01-02T03:49:42.365Z,99975.75
2023-01-02T03:52:10.610Z,99987.19
2023-01-02T03:54:39.527Z,99989.47
2023-01-02T03:57:12.766Z,99993.75
2023-01-02T03:59:48.009Z,100000.03
2023-01-02T04:02:21.279Z,99993.75
2023-01-02T04:04:52.853Z,99998.59
2023-01-02T04:07:24.654Z,100003.19
2023-01-02T04:09:53.685Z,100005.81
2023-01-02T04:12:24.287Z,100005.09
2023-01-02T04:14:54.015Z,100007.34
2023-01-02T04:17:25.661Z,100010.13
2023-01-02T04:19:57.181Z,100008.34
2023-01-02T04:22:27.033Z,100011.97
2023-01-02T04:24:56.591Z,100020.19
2023-01-02T04:27:26.311Z,100020.50
2023-01-02T04:29:54.582Z,100019.91
2023-01-02T04:32:27.334Z,100034.41
2023-01-02T04:34:55.750Z,100035.81
2023-01-02T04:37:28.221Z,100033.63
2023-01-02T04:39:58.124Z,100035.78
2023-01-02T04:42:26.863Z,100037.91
2023-01-02T04:44:54.963Z,100037.53
2023-01-02T04:47:24.435Z,100037.97
2023-01-02T04:49:52.567Z,100045.47
2023-01-02T04:52:21.721Z,100035.25
2023-01-02T04:54:49.809Z,100040.91
2023-01-02T04:57:18.098Z,100045.84
2023-01-02T04:59:46.449Z,100047.25
2023-01-02T05:02:14.652Z,100053.00
2023-01-02T05:04:44.222Z,100051.75
2023-01-02T05:07:12.275Z,100059.22
2023-01-02T05:09:40.322Z,100046.22
2023-01-02T05:12:09.028Z,100061.56
2023-01-02T05:14:37.190Z,100060.91
2023-01-02T05:17:05.259Z,100058.69
2023-01-02T05:19:33.401Z,100058.91
2023-01-02T05:22:20.631Z,100072.41
2023-01-02T05:24:48.748Z,100066.47
2023-01-02T05:27:16.967Z,100063.06
2023-01-02T05:29:45.095Z,100075.81
2023-01-02T05:32:13.174Z,100067.41
2023-01-02T05:34:41.261Z,100073.03
2023-01-02T05:37:10.940Z,100073.03
2023-01-02T05:39:39.000Z,100083.66
2023-01-02T05:42:07.172Z,100088.03
2023-01-02T05:44:35.454Z,100088.97
2023-01-02T05:47:03.599Z,100091.75
2023-01-02T05:49:32.030Z,100099.81
2023-01-02T05:52:00.045Z,100108.81
2023-01-02T05:54:29.516Z,100109.16
2023-01-02T05:56:57.950Z,100111.91
2023-01-02T05:59:26.080Z,100114.22
2023-01-02T06:01:54.167Z,100116.97
2023-01-02T06:04:22.415Z,100127.34
2023-01-02T06:06:50.583Z,100127.53
2023-01-02T06:09:18.810Z,100129.47
2023-01-02T06:11:48.675Z,100133.06
2023-01-02T06:14:16.823Z,100135.91
2023-01-02T06:16:45.120Z,100136.66
2023-01-02T06:19:13.416Z,100143.44
2023-01-02T06:21:41.747Z,100143.25
2023-01-02T06:24:09.917Z,100139.44
2023-01-02T06:26:38.402Z,100147.94
2023-01-02T06:29:07.995Z,100152.06
2023-01-02T06:31:39.579Z,100164.00
2023-01-02T06:34:08.008Z,100167.19
2023-01-02T06:36:36.050Z,100174.00
2023-01-02T06:39:05.825Z,100182.63
2023-01-02T06:41:34.228Z,100179.84
2023-01-02T06:44:02.587Z,100182.63
2023-01-02T06:46:32.249Z,100189.50
2023-01-02T06:49:00.388Z,100197.16
2023-01-02T06:51:28.421Z,100199.50
2023-01-02T06:53:57.076Z,100203.75
2023-01-02T06:56:25.211Z,100210.84
2023-01-02T06:58:53.455Z,100212.56
2023-01-02T07:01:24.412Z,100216.16
2023-01-02T07:03:55.944Z,100217.22
2023-01-02T07:06:24.089Z,100230.81
2023-01-02T07:08:53.191Z,100223.16
2023-01-02T07:11:22.628Z,100220.59
2023-01-02T07:13:51.861Z,100227.78
2023-01-02T07:16:21.043Z,100228.78
2023-01-02T07:18:49.342Z,100239.59
2023-01-02T07:21:19.625Z,100242.44
2023-01-02T07:23:47.844Z,100250.50
2023-01-02T07:26:16.170Z,100246.25
2023-01-02T07:28:44.363Z,100252.50
2023-01-02T07:31:14.015Z,100249.28
2023-01-02T07:33:42.549Z,100259.16
2023-01-02T07:36:12.494Z,100256.72
2023-01-02T07:38:42.307Z,100263.53
2023-01-02T07:41:15.700Z,100262.44
2023-01-02T07:43:44.603Z,100266.44
2023-01-02T07:46:13.145Z,100257.94
2023-01-02T07:48:41.609Z,100266.06
2023-01-02T07:51:10.178Z,100268.91
2023-01-02T07:53:39.235Z,100274.59
2023-01-02T07:56:09.364Z,100283.88
2023-01-02T07:58:37.821Z,100278.78
2023-01-02T08:01:09.647Z,100282.56
2023-01-02T08:03:38.303Z,100294.88
2023-01-02T08:06:07.207Z,100295.25
2023-01-02T08:08:35.633Z,100295.63
2023-01-02T08:11:08.999Z,100294.28
2023-01-02T08:13:37.342Z,100307.84
2023-01-02T08:16:06.407Z,100304.50
2023-01-02T08:18:34.489Z,100298.63
2023-01-02T08:21:02.611Z,100293.69
2023-01-02T08:23:30.721Z,100305.50
2023-01-02T08:26:00.164Z,100310.25
2023-01-02T08:28:29.960Z,100314.88
2023-01-02T08:30:58.558Z,100323.75
2023-01-02T08:33:26.809Z,100326.38
2023-01-02T08:35:56.766Z,100315.78
2023-01-02T08:38:24.901Z,100335.13
2023-01-02T08:40:53.802Z,100326.38
2023-01-02T08:43:22.325Z,100327.25
2023-01-02T08:45:52.053Z,100337.94
2023-01-02T08:48:21.819Z,100340.69
2023-01-02T08:50:50.162Z,100353.06
2023-01-02T08:53:18.571Z,100349.47
2023-01-02T08:55:46.849Z,100350.31
2023-01-02T08:58:15.251Z,100353.94
2023-01-02T09:00:43.321Z,100354.78
2023-01-02T09:03:13.031Z,100359.97
2023-01-02T09:05:41.232Z,100358.16
2023-01-02T09:08:09.304Z,100366.00
2023-01-02T09:10:37.606Z,100363.28
2023-01-02T09:13:05.715Z,100358.84
2023-01-02T09:15:33.834Z,100367.72
2023-01-02T09:18:01.907Z,100360.63
2023-01-02T09:20:31.482Z,100369.34
2023-01-02T09:23:00.187Z,100371.06
2023-01-02T09:25:28.270Z,100370.09
2023-01-02T09:27:56.511Z,100377.03
2023-01-02T09:30:25.072Z,100378.63
2023-01-02T09:32:53.497Z,100392.63
2023-01-02T09:35:22.290Z,100389.06
2023-01-02T09:37:52.140Z,100393.31
2023-01-02T09:40:20.461Z,100394.06
2023-01-02T09:42:50.549Z,100394.84
2023-01-02T09:45:22.396Z,100398.25
2023-01-02T09:47:52.123Z,100401.50
2023-01-02T09:50:25.696Z,100402.16
2023-01-02T09:52:56.441Z,100412.41
2023-01-02T09:55:33.251Z,100411.94
2023-01-02T09:58:04.772Z,100416.78
2023-01-02T10:00:35.677Z,100423.59
2023-01-02T10:03:08.556Z,100429.09
2023-01-02T10:05:50.575Z,100433.09
2023-01-02T10:08:31.773Z,100442.47
2023-01-02T10:11:06.978Z,100448.06
2023-01-02T10:14:16.832Z,100453.66
2023-01-02T10:16:31.542Z,100451.03
2023-01-02T10:19:01.146Z,100445.81
2023-01-02T10:21:32.300Z,100448.00
2023-01-02T10:24:05.124Z,100453.75
2023-01-02T10:26:36.601Z,100455.06
2023-01-02T10:29:09.954Z,100462.16
2023-01-02T10:31:41.980Z,100459.13
2023-01-02T10:34:15.366Z,100470.00
2023-01-02T10:36:44.866Z,100481.88
2023-01-02T10:39:17.524Z,100489.34
2023-01-02T10:41:50.261Z,100498.41
2023-01-02T10:44:22.063Z,100495.25
2023-01-02T10:46:50.365Z,100490.19
2023-01-02T10:49:18.935Z,100493.63
2023-01-02T10:51:49.508Z,100486.09
2023-01-02T10:54:19.021Z,100503.84
2023-01-02T10:56:49.623Z,100508.44
2023-01-02T10:59:21.209Z,100512.19
2023-01-02T11:01:54.073Z,100518.50
2023-01-02T11:04:24.183Z,100529.00
2023-01-02T11:06:53.800Z,100528.16
2023-01-02T11:09:24.311Z,100527.53
2023-01-02T11:11:53.653Z,100531.97
2023-01-02T11:14:25.962Z,100535.50
2023-01-02T11:16:54.331Z,100526.19
2023-01-02T11:19:29.391Z,100520.06
2023-01-02T11:21:57.991Z,100520.25
2023-01-02T11:24:28.728Z,100510.81
2023-01-02T11:26:57.306Z,100504.94
2023-01-02T11:29:29.207Z,100487.41
2023-01-02T11:31:59.385Z,100482.69
2023-01-02T11:34:35.012Z,100458.34
2023-01-02T11:37:07.957Z,100442.94
2023-01-02T11:39:37.529Z,100436.47
2023-01-02T11:42:30.039Z,100435.38
2023-01-02T11:45:01.911Z,100423.81
2023-01-02T11:47:33.498Z,100429.56
2023-01-02T11:50:01.982Z,100425.00
2023-01-02T11:52:36.515Z,100427.06
2023-01-02T11:55:09.503Z,100421.91
2023-01-02T11:57:42.723Z,100426.69
2023-01-02T12:00:13.517Z,100434.38
2023-01-02T12:02:47.074Z,100438.72
2023-01-02T12:05:16.856Z,100433.34
2023-01-02T12:07:46.171Z,100434.00
2023-01-02T12:10:29.249Z,100427.72
2023-01-02T12:13:05.597Z,100424.47
2023-01-02T12:15:40.958Z,100419.63
2023-01-02T12:18:17.393Z,100428.47
2023-01-02T12:20:51.287Z,100413.16
2023-01-02T12:23:34.281Z,100420.78
2023-01-02T12:26:09.598Z,100429.69
2023-01-02T12:28:59.176Z,100432.91
2023-01-02T12:31:42.130Z,100428.63
2023-01-02T12:34:17.815Z,100436.91
2023-01-02T12:36:53.662Z,100428.94
2023-01-02T12:39:28.911Z,100433.13
2023-01-02T12:42:03.264Z,100430.38
2023-01-02T12:44:49.367Z,100428.66
2023-01-02T12:47:26.634Z,100429.41
2023-01-02T12:50:02.496Z,100416.63
2023-01-02T12:52:38.303Z,100420.75
2023-01-02T12:55:15.805Z,100415.06
2023-01-02T12:57:47.147Z,100409.72
2023-01-02T13:00:33.668Z,100423.28
2023-01-02T13:03:08.510Z,100411.69
2023-01-02T13:05:40.079Z,100414.50
2023-01-02T13:08:15.471Z,100418.13
2023-01-02T13:10:44.305Z,100417.25
2023-01-02T13:13:13.432Z,100410.31
2023-01-02T13:15:43.740Z,100414.94
2023-01-02T13:18:16.252Z,100408.84
2023-01-02T13:20:50.254Z,100413.22
2023-01-02T13:23:34.224Z,100409.00
2023-01-02T13:26:04.193Z,100413.19
2023-01-02T13:28:33.994Z,100415.72
2023-01-02T13:31:44.157Z,100409.63
2023-01-02T13:33:55.886Z,100402.09
2023-01-02T13:36:28.636Z,100405.31
2023-01-02T13:38:59.667Z,100410.13
2023-01-02T13:41:29.516Z,100410.13
2023-01-02T13:44:01.327Z,100405.00
2023-01-02T13:47:02.690Z,100401.94
2023-01-02T13:49:23.929Z,100416.44
2023-01-02T13:52:02.520Z,100411.91
2023-01-02T13:54:36.755Z,100417.28
2023-01-02T13:57:17.930Z,100420.34
2023-01-02T13:59:58.780Z,100423.88
2023-01-02T14:02:29.710Z,100422.97
2023-01-02T14:04:58.240Z,100414.22
2023-01-02T14:07:42.419Z,100415.81
2023-01-02T14:10:29.805Z,100414.16
2023-01-02T14:13:04.441Z,100414.28
2023-01-02T14:15:36.301Z,100413.03
2023-01-02T14:18:07.481Z,100401.13
2023-01-02T14:20:38.650Z,100412.44
2023-01-02T14:23:08.433Z,100409.16
2023-01-02T14:25:49.130Z,100410.16
2023-01-02T14:28:25.320Z,100418.91
2023-01-02T14:30:54.423Z,100415.78
2023-01-02T14:33:27.775Z,100419.41
2023-01-02T14:35:58.702Z,100419.56
2023-01-02T14:38:28.861Z,100413.47
2023-01-02T14:41:19.818Z,100418.94
2023-01-02T14:43:49.559Z,100403.91
2023-01-02T14:46:22.328Z,100406.56
2023-01-02T14:48:55.362Z,100409.47
2023-01-02T14:51:28.347Z,100408.78
2023-01-02T14:53:58.713Z,100407.06
2023-01-02T14:56:30.288Z,100416.41
2023-01-02T14:59:01.152Z,100408.91
2023-01-02T15:01:43.259Z,100410.00
2023-01-02T15:04:19.725Z,100402.72
2023-01-02T15:06:50.956Z,100405.63
2023-01-02T15:09:25.001Z,100406.63
2023-01-02T15:12:11.716Z,100406.13
2023-01-02T15:14:41.508Z,100404.56
2023-01-02T15:17:10.675Z,100407.09
2023-01-02T15:19:42.414Z,100394.91
2023-01-02T15:22:11.703Z,100396.31
2023-01-02T15:24:40.335Z,100401.22
2023-01-02T15:27:16.610Z,100399.06
2023-01-02T15:29:48.137Z,100400.88
2023-01-02T15:32:20.485Z,100403.19
2023-01-02T15:34:51.246Z,100415.25
2023-01-02T15:37:19.838Z,100407.00
2023-01-02T15:39:48.626Z,100400.34
2023-01-02T15:42:36.076Z,100396.22
2023-01-02T15:45:11.547Z,100394.75
2023-01-02T15:47:46.664Z,100393.44
2023-01-02T15:50:20.622Z,100392.72
2023-01-02T15:52:51.301Z,100386.75
2023-01-02T15:55:20.666Z,100384.72
2023-01-02T15:57:50.887Z,100384.97
2023-01-02T16:00:35.313Z,100387.66
2023-01-02T16:03:03.908Z,100394.22
2023-01-02T16:05:44.922Z,100395.41
2023-01-02T16:08:18.877Z,100390.06
2023-01-02T16:10:51.203Z,100405.97
2023-01-02T16:13:41.735Z,100396.25
2023-01-02T16:16:16.682Z,100394.44
2023-01-02T16:18:47.882Z,100396.34
2023-01-02T16:21:17.257Z,100392.69
2023-01-02T16:23:50.017Z,100396.78
2023-01-02T16:26:18.858Z,100389.63
2023-01-02T16:28:47.423Z,100388.72
2023-01-02T16:31:19.555Z,100387.72
2023-01-02T16:33:48.529Z,100387.56
2023-01-02T16:36:21.659Z,100387.41
2023-01-02T16:38:54.302Z,100391.28
2023-01-02T16:41:44.752Z,100391.00
2023-01-02T16:44:15.729Z,100395.47
2023-01-02T16:46:47.108Z,100395.09
2023-01-02T16:49:18.162Z,100391.66
2023-01-02T16:51:47.161Z,100381.25
2023-01-02T16:54:17.882Z,100385.19
2023-01-02T16:56:46.783Z,100389.69
2023-01-02T16:59:15.455Z,100394.50
2023-01-02T17:01:46.045Z,100387.91
2023-01-02T17:04:16.235Z,100386.44
2023-01-02T17:06:45.479Z,100379.84
2023-01-02T17:09:13.610Z,100382.00
2023-01-02T17:12:00.760Z,100392.03
2023-01-02T17:14:29.277Z,100389.06
2023-01-02T17:17:00.354Z,100392.69
2023-01-02T17:19:28.932Z,100381.41
2023-01-02T17:22:00.551Z,100382.47
2023-01-02T17:24:30.846Z,100391.50
2023-01-02T17:26:59.147Z,100383.97
2023-01-02T17:29:30.270Z,100376.31
2023-01-02T17:32:00.162Z,100379.22
2023-01-02T17:34:28.395Z,100385.81
2023-01-02T17:36:57.145Z,100379.94
2023-01-02T17:39:25.299Z,100379.53
2023-01-02T17:41:53.496Z,100375.50
2023-01-02T17:44:22.267Z,100369.75
2023-01-02T17:47:38.923Z,100376.13
2023-01-02T17:49:41.274Z,100384.34
2023-01-02T17:52:09.567Z,100378.25
2023-01-02T17:54:37.784Z,100394.44
2023-01-02T17:57:06.554Z,100387.84
2023-01-02T17:59:35.352Z,100382.94
2023-01-02T18:02:03.802Z,100379.53
2023-01-02T18:04:32.087Z,100376.97
2023-01-02T18:07:02.161Z,100386.56
2023-01-02T18:09:31.179Z,100384.22
2023-01-02T18:11:59.302Z,100379.97
2023-01-02T18:14:29.398Z,100378.69
2023-01-02T18:16:58.275Z,100382.72
2023-01-02T18:19:27.590Z,100366.56
2023-01-02T18:21:55.795Z,100360.50
2023-01-02T18:24:26.931Z,100367.72
2023-01-02T18:26:57.972Z,100372.09
2023-01-02T18:29:26.302Z,100371.25
2023-01-02T18:31:55.893Z,100362.50
2023-01-02T18:37:18.980Z,100354.66
2023-01-02T18:39:48.764Z,100356.13
2023-01-02T18:42:19.477Z,100348.91
2023-01-02T18:44:48.215Z,100353.78
2023-01-02T18:47:24.741Z,100358.88
2023-01-02T18:49:53.835Z,100365.69
2023-01-02T18:52:25.353Z,100372.72
2023-01-02T18:54:59.905Z,100356.66
2023-01-02T18:57:30.931Z,100356.75
2023-01-02T19:00:02.116Z,100348.25
2023-01-02T19:02:31.938Z,100339.22
2023-01-02T19:05:00.192Z,100337.19
2023-01-02T19:07:30.074Z,100338.28
2023-01-02T19:10:11.442Z,100337.50
2023-01-02T19:13:06.445Z,100332.41
2023-01-02T19:15:44.007Z,100323.16
2023-01-02T19:18:29.964Z,100322.84
2023-01-02T19:21:00.116Z,100320.84
2023-01-02T19:23:31.116Z,100321.25
2023-01-02T19:26:09.125Z,100326.78
2023-01-02T19:28:37.363Z,100326.34
2023-01-02T19:31:13.136Z,100317.19
2023-01-02T19:33:42.661Z,100315.09
2023-01-02T19:36:16.090Z,100307.66
2023-01-02T19:38:44.718Z,100316.25
2023-01-02T19:41:14.226Z,100314.88
2023-01-02T19:43:42.311Z,100304.00
2023-01-02T19:46:10.584Z,100308.25
2023-01-02T19:48:38.683Z,100311.00
2023-01-02T19:51:07.401Z,100316.09
2023-01-02T19:53:35.900Z,100315.16
2023-01-02T19:56:04.179Z,100313.22
2023-01-02T19:58:33.724Z,100312.25
2023-01-02T20:01:01.794Z,100313.97
2023-01-02T20:03:30.029Z,100310.75
2023-01-02T20:05:58.231Z,100294.56
2023-01-02T20:08:28.134Z,100288.91
2023-01-02T20:10:56.202Z,100285.50
2023-01-02T20:13:24.294Z,100281.13
2023-01-02T20:15:53.795Z,100274.38
2023-01-02T20:18:21.919Z,100266.16
2023-01-02T20:20:50.099Z,100256.13
2023-01-02T20:23:18.219Z,100257.69
2023-01-02T20:25:47.638Z,100248.00
2023-01-02T20:28:15.846Z,100236.66
2023-01-02T20:30:44.109Z,100236.88
2023-01-02T20:33:14.444Z,100230.06
2023-01-02T20:35:43.053Z,100224.59
2023-01-02T20:38:11.202Z,100231.44
2023-01-02T20:40:39.220Z,100224.25
2023-01-02T20:43:07.309Z,100218.59
2023-01-02T20:45:35.673Z,100217.34
2023-01-02T20:48:03.982Z,100212.72
2023-01-02T20:50:34.043Z,100205.38
2023-01-02T20:53:02.307Z,100194.56
2023-01-02T20:55:30.609Z,100186.31
2023-01-02T20:57:58.789Z,100192.81
2023-01-02T21:00:27.221Z,100193.38
2023-01-02T21:02:55.462Z,100188.63
2023-01-02T21:05:23.728Z,100189.44
2023-01-02T21:07:53.532Z,100183.91
2023-01-02T21:10:21.690Z,100179.75
2023-01-02T21:13:07.245Z,100184.00
2023-01-02T21:15:45.396Z,100168.31
2023-01-02T21:18:15.128Z,100174.22
2023-01-02T21:20:46.380Z,100170.06
2023-01-02T21:23:17.150Z,100172.09
2023-01-02T21:25:45.401Z,100152.44
2023-01-02T21:28:13.888Z,100168.53
2023-01-02T21:30:43.635Z,100160.72
2023-01-02T21:33:12.117Z,100152.34
2023-01-02T21:35:41.374Z,100157.00
2023-01-02T21:38:09.688Z,100163.38
2023-01-02T21:40:39.561Z,100160.59
2023-01-02T21:43:07.764Z,100158.25
2023-01-02T21:45:36.329Z,100159.38
2023-01-02T21:48:04.972Z,100155.59
2023-01-02T21:50:33.376Z,100144.63
2023-01-02T21:53:01.422Z,100141.38
2023-01-02T21:55:29.641Z,100131.13
2023-01-02T21:58:15.388Z,100139.03
2023-01-02T22:00:43.985Z,100130.59
2023-01-02T22:03:12.822Z,100123.09
2023-01-02T22:05:41.287Z,100127.19
2023-01-02T22:08:09.701Z,100119.59
2023-01-02T22:10:37.853Z,100107.72
2023-01-02T22:13:07.324Z,100110.53
2023-01-02T22:15:35.483Z,100099.38
2023-01-02T22:18:03.671Z,100094.00
2023-01-02T22:20:32.337Z,100096.97
2023-01-02T22:23:00.607Z,100099.22
2023-01-02T22:25:28.911Z,100089.88
2023-01-02T22:27:56.989Z,100087.63
2023-01-02T22:30:33.882Z,100079.13
2023-01-02T22:33:03.563Z,100078.53
2023-01-02T22:35:31.874Z,100070.34
2023-01-02T22:38:00.257Z,100065.84
2023-01-02T22:40:29.082Z,100061.16
2023-01-02T22:43:01.773Z,100061.31
2023-01-02T22:45:34.549Z,100034.50
2023-01-02T22:48:04.811Z,100026.00
2023-01-02T22:50:37.047Z,100031.09
2023-01-02T22:53:08.352Z,100031.09
2023-01-02T22:55:36.602Z,100022.91
2023-01-02T22:58:05.807Z,100003.72
2023-01-02T23:00:35.594Z,100001.72
2023-01-02T23:03:03.825Z,99990.16
2023-01-02T23:05:32.061Z,99987.63
2023-01-02T23:08:00.513Z,99996.66
2023-01-02T23:10:28.578Z,99982.56
2023-01-02T23:12:56.615Z,99971.53
2023-01-02T23:15:24.778Z,99971.53
2023-01-02T23:18:11.926Z,99964.31
2023-01-02T23:20:40.336Z,99971.22
2023-01-02T23:23:08.412Z,99958.53
2023-01-02T23:25:40.014Z,99961.44
2023-01-02T23:28:08.064Z,99951.63
2023-01-02T23:30:36.125Z,99944.53
2023-01-02T23:33:05.761Z,99955.16
2023-01-02T23:35:33.867Z,99947.13
2023-01-02T23:38:01.926Z,99939.47
2023-01-02T23:40:34.104Z,99935.63
2023-01-02T23:43:02.655Z,99933.09
2023-01-02T23:45:30.905Z,99917.84
2023-01-02T23:47:59.361Z,99912.00
2023-01-02T23:50:29.669Z,99910.38
2023-01-02T23:52:57.958Z,99888.66
2023-01-02T23:55:26.135Z,99884.78
2023-01-02T23:57:54.235Z,99886.31
